Time;durP1;ratioP1;P1;durP2;ratioP2;P2;SDS_P1;SDS_P2;PMS_P1;PMS_P2;Temp;Humidity;BMP_temperature;BMP_pressure;BME280_temperature;BME280_humidity;BME280_pressure;Samples;Min_cycle;Max_cycle;Signal;HPM_P1;HPM_P2
2022/06/13 00:00:23;;;;;;;3.05;1.45;;;;;;;14.50;81.60;98107.94;1832367;77;21399;-61
2022/06/13 00:02:49;;;;;;;2.27;1.20;;;;;;;14.49;81.40;98111.73;1830293;77;20873;-63
2022/06/13 00:05:16;;;;;;;2.40;1.27;;;;;;;14.44;81.49;98101.09;1822138;77;21107;-59
2022/06/13 00:07:44;;;;;;;2.17;1.20;;;;;;;14.41;81.66;98104.42;1821009;77;20883;-59
2022/06/13 00:10:12;;;;;;;2.08;1.20;;;;;;;14.41;81.74;98103.08;1820575;77;20971;-58
2022/06/13 00:12:40;;;;;;;2.33;1.50;;;;;;;14.43;81.64;98106.80;1819434;77;21043;-62
2022/06/13 00:15:11;;;;;;;2.70;1.20;;;;;;;14.35;81.58;98100.27;1810365;77;21029;-61
2022/06/13 00:17:39;;;;;;;2.47;1.40;;;;;;;14.31;81.61;98102.80;1819953;77;20877;-58
2022/06/13 00:20:07;;;;;;;2.05;1.40;;;;;;;14.28;81.65;98097.20;1765620;80;21459;-61
2022/06/13 00:22:34;;;;;;;2.20;1.20;;;;;;;14.24;81.54;98102.97;1805089;77;20884;-58
2022/06/13 00:25:01;;;;;;;1.50;1.22;;;;;;;14.19;81.80;98098.52;1823079;77;20990;-61
2022/06/13 00:27:31;;;;;;;3.42;1.40;;;;;;;14.19;81.96;98099.06;1825495;77;20920;-59
2022/06/13 00:29:58;;;;;;;1.98;1.20;;;;;;;14.21;82.12;98092.27;1829637;77;21218;-58
2022/06/13 00:32:24;;;;;;;2.87;1.22;;;;;;;14.23;82.09;98090.59;1825176;77;20999;-58
2022/06/13 00:34:51;;;;;;;2.83;1.40;;;;;;;14.21;81.98;98091.47;1820497;77;21063;-60
2022/06/13 00:37:17;;;;;;;3.90;1.40;;;;;;;14.13;82.00;98088.20;1830942;77;21404;-61
2022/06/13 00:39:44;;;;;;;2.85;1.30;;;;;;;14.09;82.09;98093.40;1821171;77;20948;-61
2022/06/13 00:42:14;;;;;;;1.55;1.05;;;;;;;14.06;82.15;98090.55;1823049;77;21235;-60
2022/06/13 00:44:40;;;;;;;3.42;1.47;;;;;;;14.03;82.27;98084.42;1735282;80;20986;-60
2022/06/13 00:47:10;;;;;;;4.47;1.57;;;;;;;14.02;82.39;98088.20;1786397;79;20903;-59
2022/06/13 00:49:40;;;;;;;2.65;1.40;;;;;;;14.03;82.45;98084.42;1776233;79;20928;-58
2022/06/13 00:52:25;;;;;;;2.00;1.50;;;;;;;14.03;82.55;98081.73;1768795;78;20864;-61
2022/06/13 00:54:51;;;;;;;1.67;1.10;;;;;;;14.05;82.54;98084.36;1787432;77;21280;-57
2022/06/13 00:57:22;;;;;;;2.60;1.30;;;;;;;14.03;82.51;98075.80;1810001;77;21014;-59
2022/06/13 00:59:53;;;;;;;1.27;1.17;;;;;;;14.03;82.61;98079.04;1830221;77;20927;-59
2022/06/13 01:12:43;;;;;;;3.17;1.27;;;;;;;13.89;82.99;98074.30;1822452;77;20936;-58
2022/06/13 01:15:20;;;;;;;1.17;1.07;;;;;;;13.89;83.09;98076.44;1814066;77;20922;-59
2022/06/13 01:18:18;;;;;;;1.82;1.20;;;;;;;13.90;83.17;98074.52;1814770;77;20970;-61
2022/06/13 01:21:23;;;;;;;2.45;1.25;;;;;;;13.89;83.14;98068.37;1817490;77;21125;-58
2022/06/13 01:24:35;;;;;;;3.05;1.55;;;;;;;13.83;83.22;98070.13;1819372;77;20831;-59
2022/06/13 01:27:43;;;;;;;3.95;1.45;;;;;;;13.81;83.22;98069.11;1828382;77;20975;-63
2022/06/13 01:30:49;;;;;;;1.65;1.40;;;;;;;13.78;83.31;98072.41;1804650;77;20949;-61
2022/06/13 01:33:39;;;;;;;2.63;1.30;;;;;;;13.73;83.31;98066.60;1820757;77;20896;-60
2022/06/13 01:36:20;;;;;;;3.15;1.30;;;;;;;13.67;83.50;98072.42;1814285;78;21661;-58
2022/06/13 01:39:15;;;;;;;1.52;1.20;;;;;;;13.65;83.74;98066.02;1809712;78;21048;-58
2022/06/13 01:42:19;;;;;;;1.70;1.40;;;;;;;13.64;83.93;98067.11;1791683;77;20985;-62
2022/06/13 01:45:24;;;;;;;3.42;1.45;;;;;;;13.63;83.99;98064.19;1811704;77;20914;-61
2022/06/13 01:48:21;;;;;;;1.65;1.32;;;;;;;13.60;84.08;98059.95;1809925;77;20962;-57
2022/06/13 01:51:11;;;;;;;3.12;1.30;;;;;;;13.59;84.00;98059.16;1834302;77;21109;-59
2022/06/13 01:54:08;;;;;;;3.37;1.07;;;;;;;13.56;83.86;98058.45;1782407;78;20934;-59
2022/06/13 01:56:37;;;;;;;;;;;;;;;13.50;83.78;98052.94;1755187;80;21519;-57
2022/06/13 01:59:27;;;;;;;1.57;1.37;;;;;;;13.43;83.86;98057.95;1776379;79;20083;-59
2022/06/13 02:01:59;;;;;;;4.22;1.20;;;;;;;13.38;83.97;98049.20;1809090;78;21000;-59
2022/06/13 02:04:39;;;;;;;3.15;1.40;;;;;;;13.37;84.04;98048.97;1773154;80;21250;-62
2022/06/13 02:07:13;;;;;;;2.40;1.50;;;;;;;13.32;84.15;98045.86;1803528;77;20892;-58
2022/06/13 02:09:58;;;;;;;1.15;1.05;;;;;;;13.33;84.21;98041.28;1819339;77;20954;-60
2022/06/13 02:12:24;;;;;;;5.10;1.50;;;;;;;13.30;84.29;98041.88;1832760;77;20871;-62
2022/06/13 02:15:09;;;;;;;2.00;1.30;;;;;;;13.32;84.51;98043.72;1810100;78;21050;-59
2022/06/13 02:17:42;;;;;;;2.72;1.62;;;;;;;13.32;84.71;98045.86;1826654;77;39252;-60
2022/06/13 02:20:26;;;;;;;2.10;1.40;;;;;;;13.36;84.77;98044.14;1764779;80;21016;-59
2022/06/13 02:22:57;;;;;;;1.65;1.40;;;;;;;13.36;84.84;98042.79;1762856;80;20853;-59
2022/06/13 02:25:32;;;;;;;1.60;1.50;;;;;;;13.40;84.83;98045.11;1762215;80;20968;-58
2022/06/13 02:28:07;;;;;;;3.52;1.47;;;;;;;13.44;84.96;98048.80;1753250;80;20983;-58
2022/06/13 02:30:41;;;;;;;4.17;1.45;;;;;;;13.47;84.92;98044.13;1756445;80;21287;-61
2022/06/13 02:33:14;;;;;;;2.83;1.20;;;;;;;13.50;84.84;98047.55;1761444;80;20873;-61
2022/06/13 02:35:54;;;;;;;1.90;1.12;;;;;;;13.53;84.82;98041.56;1764542;80;21049;-58
2022/06/13 02:38:29;;;;;;;9.33;1.62;;;;;;;13.58;84.78;98041.44;1767979;80;21088;-62
2022/06/13 02:41:08;;;;;;;1.87;1.30;;;;;;;13.61;84.58;98038.11;1763663;80;21504;-59
2022/06/13 02:43:46;;;;;;;4.03;1.50;;;;;;;13.65;84.46;98046.38;1755857;80;21523;-62
2022/06/13 02:46:21;;;;;;;3.52;1.52;;;;;;;13.64;84.36;98047.47;1774347;80;20878;-62
2022/06/13 02:49:06;;;;;;;3.77;1.40;;;;;;;13.60;84.24;98047.84;1752528;80;20933;-60
2022/06/13 02:51:49;;;;;;;3.12;1.50;;;;;;;13.53;84.26;98042.91;1840395;77;21462;-60
2022/06/13 02:54:36;;;;;;;3.25;1.52;;;;;;;13.50;84.27;98046.20;1772581;80;20969;-61
2022/06/13 02:57:29;;;;;;;2.60;1.42;;;;;;;13.46;84.37;98046.58;1835888;77;21228;-62
2022/06/13 03:00:30;;;;;;;2.87;1.52;;;;;;;13.45;84.42;98049.02;1834322;77;20960;-59
2022/06/13 03:03:09;;;;;;;2.15;1.40;;;;;;;13.44;84.49;98052.03;1831138;77;20864;-61
2022/06/13 03:05:59;;;;;;;3.27;1.47;;;;;;;13.42;84.58;98045.62;1752849;80;20933;-62
2022/06/13 03:08:37;;;;;;;1.98;1.42;;;;;;;13.45;84.66;98046.33;1795872;79;20849;-60
2022/06/13 03:11:32;;;;;;;5.97;1.52;;;;;;;13.46;84.73;98049.28;1715388;80;21274;-59
2022/06/13 03:14:10;;;;;;;5.15;1.67;;;;;;;13.48;84.80;98052.45;1833195;77;20895;-58
2022/06/13 03:16:53;;;;;;;2.25;1.52;;;;;;;13.47;84.92;98056.23;1822715;77;20979;-62
2022/06/13 03:19:28;;;;;;;2.37;1.52;;;;;;;13.50;85.04;98052.94;1816735;77;20939;-60
2022/06/13 03:22:16;;;;;;;2.35;1.30;;;;;;;13.55;85.14;98055.50;1832320;77;20875;-62
2022/06/13 03:24:54;;;;;;;3.17;1.55;;;;;;;13.58;85.35;98050.86;1816930;77;21725;-58
2022/06/13 03:27:32;;;;;;;2.80;1.40;;;;;;;13.63;85.55;98047.24;1810097;78;20989;-58
2022/06/13 03:30:04;;;;;;;2.67;1.80;;;;;;;13.71;85.67;98044.59;1835337;77;20899;-58
2022/06/13 03:32:36;;;;;;;2.95;1.70;;;;;;;13.78;85.70;98044.72;1828609;77;20919;-60
2022/06/13 03:35:06;;;;;;;3.67;1.80;;;;;;;13.83;85.75;98045.36;1826822;77;21533;-63
2022/06/13 03:37:36;;;;;;;3.37;1.30;;;;;;;13.91;85.77;98038.42;1825925;77;21132;-62
2022/06/13 03:40:08;;;;;;;2.45;1.45;;;;;;;13.97;85.78;98039.87;1834101;77;20996;-62
2022/06/13 03:42:43;;;;;;;7.22;1.95;;;;;;;14.03;85.89;98041.34;1826428;77;20899;-59
2022/06/13 03:45:18;;;;;;;3.40;1.62;;;;;;;14.10;85.98;98037.64;1826051;77;20990;-63
2022/06/13 03:47:49;;;;;;;3.33;1.75;;;;;;;14.17;86.10;98033.94;1822682;77;20899;-60
2022/06/13 03:50:44;;;;;;;4.00;2.00;;;;;;;14.26;86.14;98040.14;1822151;77;21237;-61
2022/06/13 03:53:25;;;;;;;3.98;1.75;;;;;;;14.36;86.18;98039.34;1821997;77;20958;-60
2022/06/13 03:56:12;;;;;;;4.35;1.60;;;;;;;14.51;86.09;98044.83;1809286;77;20974;-58
2022/06/13 03:58:49;;;;;;;6.45;1.70;;;;;;;14.61;85.95;98043.19;1832202;77;20880;-57
2022/06/13 04:01:23;;;;;;;5.80;1.85;;;;;;;14.72;85.87;98040.42;1827586;77;20832;-60
2022/06/13 04:03:49;;;;;;;3.58;1.82;;;;;;;14.85;85.76;98036.00;1810354;77;21937;-58
2022/06/13 04:06:41;;;;;;;6.42;1.90;;;;;;;14.97;85.50;98042.37;1827711;77;20896;-60
2022/06/13 04:09:26;;;;;;;4.87;2.10;;;;;;;15.12;85.29;98044.35;1818770;77;20879;-60
2022/06/13 04:12:11;;;;;;;6.40;2.10;;;;;;;15.28;84.81;98035.45;1827950;77;20932;-59
2022/06/13 04:15:11;;;;;;;3.02;1.55;;;;;;;15.44;84.41;98037.09;1836339;77;20880;-61
2022/06/13 04:18:08;;;;;;;8.38;1.80;;;;;;;15.58;84.05;98039.08;1830874;77;21111;-62
2022/06/13 04:21:03;;;;;;;8.18;2.00;;;;;;;15.76;83.78;98033.86;1810505;77;20871;-63
2022/06/13 04:23:47;;;;;;;7.55;2.30;;;;;;;15.92;83.10;98036.27;1781427;77;20911;-60
2022/06/13 04:26:24;;;;;;;8.83;2.20;;;;;;;16.07;82.83;98030.34;1836534;77;21454;-62
2022/06/13 04:29:05;;;;;;;5.87;2.08;;;;;;;16.21;82.35;98033.61;1823587;77;20903;-61
2022/06/13 04:31:34;;;;;;;6.50;1.90;;;;;;;16.32;81.68;98029.41;1738171;81;20913;-62
2022/06/13 04:34:04;;;;;;;7.03;2.20;;;;;;;16.48;81.06;98032.92;1814495;77;21077;-61
2022/06/13 04:36:31;;;;;;;4.50;1.90;;;;;;;16.57;80.62;98026.92;1818421;77;21441;-62
2022/06/13 04:39:00;;;;;;;7.08;2.10;;;;;;;16.69;80.09;98033.77;1819388;77;20884;-62
2022/06/13 04:41:29;;;;;;;10.78;2.25;;;;;;;16.79;79.76;98024.69;1812205;77;21422;-60
2022/06/13 04:43:57;;;;;;;6.87;2.10;;;;;;;16.93;79.47;98025.22;1823111;77;21080;-59
2022/06/13 04:46:25;;;;;;;8.65;2.40;;;;;;;17.06;79.35;98028.23;1832254;77;21462;-59
2022/06/13 04:48:57;;;;;;;9.73;2.60;;;;;;;17.19;79.15;98023.69;1820668;77;21474;-62
2022/06/13 04:51:28;;;;;;;8.63;2.55;;;;;;;17.32;78.95;98027.21;1831588;77;21052;-61
2022/06/13 04:54:12;;;;;;;4.87;2.35;;;;;;;17.43;78.66;98028.41;1811906;77;20860;-60
2022/06/13 04:56:40;;;;;;;5.97;2.55;;;;;;;17.51;78.32;98029.69;1818500;77;20947;-61
2022/06/13 04:59:08;;;;;;;8.98;2.50;;;;;;;17.60;78.12;98022.82;1821471;77;20860;-61
2022/06/13 05:01:38;;;;;;;8.65;2.45;;;;;;;17.69;77.80;98027.02;1760945;77;20892;-62
2022/06/13 05:04:07;;;;;;;3.85;2.40;;;;;;;17.77;77.53;98024.00;1801717;77;21389;-60
2022/06/13 05:06:38;;;;;;;7.50;2.75;;;;;;;17.86;77.27;98025.24;1819438;77;20928;-60
2022/06/13 05:09:10;;;;;;;6.55;2.33;;;;;;;17.96;76.57;98024.26;1835046;77;21219;-58
2022/06/13 05:12:12;;;;;;;5.20;2.60;;;;;;;18.06;75.83;98023.83;1805330;77;20860;-61
2022/06/13 05:14:48;;;;;;;8.18;2.40;;;;;;;18.16;75.28;98021.23;1800851;79;21055;-62
2022/06/13 05:17:46;;;;;;;8.58;2.40;;;;;;;18.30;74.50;98023.05;1779208;78;20932;-62
2022/06/13 05:20:37;;;;;;;6.10;2.50;;;;;;;18.41;73.71;98017.38;1790406;79;20932;-60
2022/06/13 05:23:39;;;;;;;8.45;2.70;;;;;;;18.53;72.87;98022.83;1796156;79;22056;-63
2022/06/13 05:26:07;;;;;;;4.30;2.25;;;;;;;18.63;72.36;98024.29;1830669;77;20958;-60
2022/06/13 05:28:35;;;;;;;5.03;2.33;;;;;;;18.70;72.01;98015.77;1820931;77;20970;-62
2022/06/13 05:31:08;;;;;;;4.90;2.67;;;;;;;18.80;72.00;98018.02;1789136;79;20967;-59
2022/06/13 05:33:38;;;;;;;8.35;2.40;;;;;;;18.90;72.01;98013.48;1757363;80;21047;-63
2022/06/13 05:36:10;;;;;;;8.95;2.40;;;;;;;19.01;71.66;98017.28;1754368;80;22351;-58
2022/06/13 05:38:47;;;;;;;3.92;2.30;;;;;;;19.10;71.41;98015.80;1761694;80;21047;-60
2022/06/13 05:41:14;;;;;;;4.65;2.30;;;;;;;19.23;70.94;98015.17;1757053;80;20976;-60
2022/06/13 05:43:41;;;;;;;9.63;2.55;;;;;;;19.35;70.30;98017.84;1784813;78;21096;-61
2022/06/13 05:46:12;;;;;;;8.55;2.52;;;;;;;19.45;69.59;98017.38;1817730;77;21110;-61
2022/06/13 05:48:39;;;;;;;5.92;2.45;;;;;;;19.56;68.75;98019.81;1799489;77;21722;-64
2022/06/13 05:51:05;;;;;;;8.58;2.27;;;;;;;19.66;67.78;98017.95;1819324;78;21379;-58
2022/06/13 05:53:32;;;;;;;5.75;2.00;;;;;;;19.77;66.99;98012.22;1815192;77;21097;-59
2022/06/13 05:56:00;;;;;;;7.75;2.10;;;;;;;19.86;66.29;98010.11;1805962;77;21125;-59
2022/06/13 05:58:27;;;;;;;3.92;1.95;;;;;;;19.95;65.49;98012.68;1824876;77;21096;-62
2022/06/13 06:01:01;;;;;;;5.40;2.30;;;;;;;20.01;65.58;98005.27;1804757;77;21173;-59
2022/06/13 06:03:34;;;;;;;5.55;2.22;;;;;;;20.10;65.75;98012.67;1797571;77;21017;-58
2022/06/13 06:06:05;;;;;;;3.90;2.17;;;;;;;20.17;65.50;98010.69;1800815;77;21055;-63
2022/06/13 06:08:37;;;;;;;4.90;1.92;;;;;;;20.25;64.39;98002.39;1791200;77;21473;-63
2022/06/13 06:11:04;;;;;;;3.45;1.90;;;;;;;20.34;63.84;98009.80;1812590;77;21588;-61
2022/06/13 06:13:42;;;;;;;3.90;1.90;;;;;;;20.43;62.64;98015.03;1815088;77;21155;-59
2022/06/13 06:16:24;;;;;;;3.70;2.00;;;;;;;20.51;62.03;98009.98;1782624;77;20983;-63
2022/06/13 06:18:54;;;;;;;2.87;1.67;;;;;;;20.59;62.39;98010.34;1802883;77;20991;-62
2022/06/13 06:21:23;;;;;;;3.77;1.92;;;;;;;20.67;61.61;98009.38;1798364;77;21066;-62
2022/06/13 06:23:50;;;;;;;3.58;1.60;;;;;;;20.74;60.94;98003.30;1805393;77;20999;-61
2022/06/13 06:26:27;;;;;;;4.05;1.65;;;;;;;20.81;60.20;98001.52;1806662;77;21338;-63
2022/06/13 06:28:53;;;;;;;3.20;1.70;;;;;;;20.87;58.71;98003.37;1815110;77;21044;-61
2022/06/13 06:31:19;;;;;;;7.45;1.72;;;;;;;20.92;57.80;98003.09;1797560;77;21133;-59
2022/06/13 06:33:48;;;;;;;5.15;1.80;;;;;;;20.95;58.36;98002.39;1790681;77;21527;-63
2022/06/13 06:36:15;;;;;;;4.78;1.77;;;;;;;21.01;58.63;98003.09;1801707;78;21036;-63
2022/06/13 06:38:42;;;;;;;3.55;1.70;;;;;;;21.10;59.30;97997.49;1807065;77;21231;-63
2022/06/13 06:41:12;;;;;;;5.22;2.00;;;;;;;21.21;59.53;97998.48;1808979;77;21114;-59
2022/06/13 06:43:40;;;;;;;4.22;1.90;;;;;;;21.33;59.02;98003.78;1800617;77;21078;-59
2022/06/13 06:46:09;;;;;;;3.33;1.98;;;;;;;21.42;59.23;97999.46;1807652;77;21566;-63
2022/06/13 06:48:36;;;;;;;7.37;1.92;;;;;;;21.52;59.83;97995.59;1806444;77;20987;-63
2022/06/13 06:51:09;;;;;;;6.85;2.02;;;;;;;21.62;59.80;97995.58;1813888;77;21191;-60
2022/06/13 07:01:58;;;;;;;4.53;1.67;;;;;;;21.96;58.94;97988.39;1798503;77;21089;-63
2022/06/13 07:04:24;;;;;;;3.75;2.10;;;;;;;22.04;58.42;97989.52;1789150;77;21144;-61
2022/06/13 07:06:51;;;;;;;2.80;1.52;;;;;;;22.12;57.03;97983.02;1795567;77;21539;-64
2022/06/13 07:09:18;;;;;;;3.70;1.80;;;;;;;22.19;57.38;97984.48;1801343;77;21036;-63
2022/06/13 07:11:53;;;;;;;1.92;1.20;;;;;;;22.27;56.68;97992.22;1797864;78;21007;-59
2022/06/13 07:14:30;;;;;;;3.52;1.62;;;;;;;22.36;55.89;97985.92;1807696;77;21118;-59
2022/06/13 07:17:03;;;;;;;2.98;1.40;;;;;;;22.46;55.74;97980.63;1794238;77;21090;-60
2022/06/13 07:19:32;;;;;;;9.58;1.60;;;;;;;22.57;55.81;97983.50;1807093;77;21125;-60
2022/06/13 07:22:00;;;;;;;3.08;1.60;;;;;;;22.66;54.70;97979.95;1796010;77;21598;-62
2022/06/13 07:24:27;;;;;;;2.98;1.57;;;;;;;22.77;53.52;97978.74;1794601;77;21117;-61
2022/06/13 07:26:54;;;;;;;3.85;1.30;;;;;;;22.85;53.25;97991.31;1801342;77;21550;-63
2022/06/13 07:29:21;;;;;;;2.72;1.40;;;;;;;22.93;52.39;97984.80;1819738;77;21098;-60
2022/06/13 07:31:54;;;;;;;1.95;1.10;;;;;;;23.03;51.32;97979.45;1813564;77;20931;-61
2022/06/13 07:34:22;;;;;;;5.03;1.20;;;;;;;23.13;49.61;97984.27;1808608;77;21553;-60
2022/06/13 07:36:51;;;;;;;2.77;1.40;;;;;;;23.19;48.54;97979.84;1805835;77;21539;-64
2022/06/13 07:39:18;;;;;;;4.10;1.40;;;;;;;23.22;48.52;97977.17;1803687;77;21113;-60
2022/06/13 07:41:45;;;;;;;3.17;1.35;;;;;;;23.26;50.18;97982.66;1777176;79;21313;-61
2022/06/13 07:44:20;;;;;;;3.08;1.45;;;;;;;23.33;50.71;97980.80;1815086;77;21056;-64
2022/06/13 07:46:47;;;;;;;3.10;1.42;;;;;;;23.44;50.09;97978.20;1811881;77;21023;-65
2022/06/13 07:49:14;;;;;;;2.70;1.50;;;;;;;23.55;50.47;97976.39;1802686;77;20959;-65
2022/06/13 07:51:42;;;;;;;2.77;1.47;;;;;;;23.63;48.66;97978.02;1798147;77;21081;-62
2022/06/13 07:54:08;;;;;;;3.67;1.35;;;;;;;23.66;48.24;97970.43;1804805;77;21091;-61
2022/06/13 07:56:35;;;;;;;3.75;1.47;;;;;;;23.71;49.63;97970.09;1817852;77;20884;-64
2022/06/13 07:59:02;;;;;;;2.98;1.70;;;;;;;23.75;48.33;97971.70;1800627;77;21518;-61
2022/06/13 08:01:28;;;;;;;4.55;1.50;;;;;;;23.78;47.40;97970.95;1775275;79;21463;-61
2022/06/13 08:03:57;;;;;;;2.95;1.40;;;;;;;23.83;49.99;97969.82;1817619;77;21032;-62
2022/06/13 08:06:24;;;;;;;3.98;1.50;;;;;;;23.97;49.77;97970.52;1798868;77;21079;-63
2022/06/13 08:08:50;;;;;;;2.55;1.42;;;;;;;24.10;48.81;97972.61;1808358;77;21147;-60
2022/06/13 08:11:22;;;;;;;3.55;1.75;;;;;;;24.18;47.42;97959.20;1798332;77;21042;-59
2022/06/13 08:13:49;;;;;;;3.67;1.40;;;;;;;24.25;48.26;97955.14;1812745;77;21519;-59
2022/06/13 08:16:17;;;;;;;2.67;1.22;;;;;;;24.24;47.41;97964.50;1803739;77;20951;-59
2022/06/13 08:18:44;;;;;;;3.98;1.45;;;;;;;24.13;47.71;97964.23;1797240;77;21097;-63
2022/06/13 08:21:14;;;;;;;3.02;1.42;;;;;;;23.98;48.43;97962.50;1792421;77;20861;-56
2022/06/13 08:23:41;;;;;;;4.72;1.50;;;;;;;23.82;48.64;97962.77;1800274;77;21043;-59
2022/06/13 08:26:09;;;;;;;3.25;1.50;;;;;;;23.64;48.72;97959.88;1796821;77;20990;-62
2022/06/13 08:28:36;;;;;;;2.67;1.30;;;;;;;23.54;48.22;97959.77;1769629;78;21454;-59
2022/06/13 08:31:12;;;;;;;2.00;1.32;;;;;;;23.47;48.54;97958.33;1785422;78;21927;-62
2022/06/13 08:33:39;;;;;;;3.35;1.37;;;;;;;23.40;48.85;97959.62;1791300;77;21012;-64
2022/06/13 08:36:06;;;;;;;4.33;1.22;;;;;;;23.26;48.63;97948.51;1820410;77;20940;-63
2022/06/13 08:38:33;;;;;;;5.90;1.70;;;;;;;23.14;49.20;97954.44;1818848;77;21024;-59
2022/06/13 08:41:24;;;;;;;3.17;1.30;;;;;;;23.15;50.21;97953.27;1802998;77;21020;-61
2022/06/13 08:44:16;;;;;;;2.33;1.47;;;;;;;23.17;49.27;97948.02;1769046;78;21461;-62
2022/06/13 08:47:02;;;;;;;1.92;1.35;;;;;;;23.26;48.71;97943.83;1791723;77;20936;-62
2022/06/13 08:49:44;;;;;;;4.58;1.50;;;;;;;23.50;48.68;97942.55;1793560;77;20889;-59
2022/06/13 08:52:25;;;;;;;2.37;1.40;;;;;;;23.76;48.83;97941.80;1807081;77;21014;-61
2022/06/13 08:55:04;;;;;;;2.00;1.15;;;;;;;24.02;47.02;97946.34;1808249;78;21059;-62
2022/06/13 08:57:35;;;;;;;2.98;1.42;;;;;;;24.23;46.05;97942.42;1789888;77;22133;-59
2022/06/13 09:00:16;;;;;;;3.02;1.47;;;;;;;24.34;46.00;97939.17;1802383;77;20992;-62
2022/06/13 09:03:00;;;;;;;2.87;1.40;;;;;;;24.56;46.23;97940.66;1813576;77;21010;-58
2022/06/13 09:05:41;;;;;;;7.65;1.40;;;;;;;24.77;44.74;97938.06;1780422;77;21110;-60
2022/06/13 09:08:28;;;;;;;3.12;1.42;;;;;;;24.90;43.99;97931.06;1792381;77;21089;-58
2022/06/13 09:11:11;;;;;;;4.33;1.32;;;;;;;25.05;45.72;97927.22;1779591;77;21661;-64
2022/06/13 09:14:07;;;;;;;3.50;1.42;;;;;;;25.28;44.48;97926.31;1766081;77;21070;-57
2022/06/13 09:16:35;;;;;;;3.62;1.20;;;;;;;25.34;43.86;97928.88;1773483;79;21054;-65
2022/06/13 09:19:24;;;;;;;4.25;1.50;;;;;;;25.02;43.16;97921.92;1752691;80;21351;-59
2022/06/13 09:22:14;;;;;;;4.65;1.60;;;;;;;25.02;43.16;97921.92;1812895;77;21075;-64
2022/06/13 09:25:03;;;;;;;4.35;1.25;;;;;;;24.83;43.93;97925.56;1806075;77;21124;-59
2022/06/13 09:27:43;;;;;;;2.75;1.40;;;;;;;24.63;43.99;97921.53;1812278;77;21462;-62
2022/06/13 09:30:16;;;;;;;2.52;1.30;;;;;;;24.48;44.33;97925.56;1814218;77;21040;-62
2022/06/13 09:32:58;;;;;;;4.17;1.37;;;;;;;24.39;45.45;97925.70;1806855;77;21000;-60
2022/06/13 09:35:29;;;;;;;2.62;1.25;;;;;;;24.30;45.43;97925.27;1802713;77;21176;-61
2022/06/13 09:38:08;;;;;;;3.70;1.50;;;;;;;24.21;46.14;97921.47;1801844;77;21302;-60
2022/06/13 09:41:03;;;;;;;4.25;1.42;;;;;;;24.13;46.40;97922.61;1791015;77;21514;-63
2022/06/13 09:44:11;;;;;;;2.65;1.70;;;;;;;24.05;47.33;97913.31;1804877;77;21658;-58
2022/06/13 09:47:16;;;;;;;4.35;1.65;;;;;;;24.10;47.41;97912.41;1794558;77;21531;-61
2022/06/13 09:50:11;;;;;;;2.95;1.35;;;;;;;24.37;46.84;97904.78;1776774;78;21543;-61
2022/06/13 09:53:01;;;;;;;4.08;1.40;;;;;;;24.57;44.96;97907.99;1793042;77;21109;-60
2022/06/13 09:55:41;;;;;;;3.58;1.30;;;;;;;24.79;46.36;97906.39;1785083;77;21510;-64
2022/06/13 09:58:14;;;;;;;4.60;1.60;;;;;;;24.97;46.03;97900.95;1796765;77;21075;-60
2022/06/13 10:01:03;;;;;;;2.50;1.47;;;;;;;25.02;46.05;97900.59;1791453;77;21093;-60
2022/06/13 10:03:56;;;;;;;5.10;1.50;;;;;;;24.96;46.26;97889.23;1797397;77;21110;-57
2022/06/13 10:06:45;;;;;;;5.40;1.45;;;;;;;24.90;47.19;97896.83;1801100;77;22498;-59
2022/06/13 10:09:46;;;;;;;4.37;1.40;;;;;;;24.85;46.44;97898.56;1774004;79;21457;-56
2022/06/13 10:12:46;;;;;;;5.65;1.40;;;;;;;24.85;46.85;97893.88;1749791;80;21096;-61
2022/06/13 10:15:27;;;;;;;4.58;1.35;;;;;;;25.00;47.23;97883.75;1726105;80;21067;-58
2022/06/13 10:18:20;;;;;;;3.83;1.30;;;;;;;25.25;45.23;97877.73;1739776;80;21023;-60
2022/06/13 10:20:57;;;;;;;1.98;1.20;;;;;;;25.49;46.51;97879.77;1745073;80;21181;-59
2022/06/13 10:23:48;;;;;;;2.45;1.20;;;;;;;25.78;45.99;97873.70;1741569;80;21058;-58
2022/06/13 10:26:37;;;;;;;3.15;1.30;;;;;;;25.85;45.25;97871.55;1739946;80;21018;-62
2022/06/13 10:29:38;;;;;;;4.00;1.40;;;;;;;25.75;43.37;97867.05;1737389;81;21075;-57
2022/06/13 10:32:23;;;;;;;2.60;1.22;;;;;;;25.60;42.48;97859.98;1812115;77;21065;-62
2022/06/13 10:35:28;;;;;;;3.22;1.20;;;;;;;25.49;41.93;97861.16;1820910;77;22138;-61
2022/06/13 10:38:33;;;;;;;5.05;1.60;;;;;;;25.52;42.40;97852.95;1786026;78;20910;-61
2022/06/13 10:41:15;;;;;;;3.55;1.50;;;;;;;25.79;43.35;97845.88;1802663;77;21371;-60
2022/06/13 10:43:48;;;;;;;3.23;1.33;;;;;;;26.05;40.34;97845.27;1808214;77;20959;-62
2022/06/13 10:46:16;;;;;;;3.02;1.10;;;;;;;26.22;41.72;97844.45;1804923;77;21067;-61
2022/06/13 10:49:09;;;;;;;3.75;1.10;;;;;;;26.44;40.21;97833.62;1783599;77;21219;-56
2022/06/13 10:51:40;;;;;;;3.08;1.10;;;;;;;26.60;38.12;97825.70;1805443;77;21084;-60
2022/06/13 10:54:21;;;;;;;3.77;1.30;;;;;;;26.77;41.23;97828.20;1801806;77;21044;-60
2022/06/13 10:56:58;;;;;;;5.25;1.62;;;;;;;26.91;40.14;97830.30;1821993;77;21052;-58
2022/06/13 10:59:28;;;;;;;2.05;1.00;;;;;;;26.98;37.92;97834.38;1791241;77;21577;-59
2022/06/13 11:02:00;;;;;;;3.20;1.20;;;;;;;26.86;38.13;97824.42;1798148;77;21228;-61
2022/06/13 11:04:31;;;;;;;1.75;0.93;;;;;;;26.61;37.61;97824.53;1811703;77;21003;-62
2022/06/13 11:07:03;;;;;;;2.17;1.05;;;;;;;26.32;37.24;97817.57;1826626;77;21031;-63
2022/06/13 11:09:38;;;;;;;3.05;1.15;;;;;;;26.08;38.11;97821.13;1815588;77;21510;-59
2022/06/13 11:12:20;;;;;;;3.10;1.30;;;;;;;25.91;38.68;97813.75;1798207;77;21057;-61
2022/06/13 11:23:54;;;;;;;3.25;1.30;;;;;;;25.87;40.51;97800.02;1799374;77;21102;-60
2022/06/13 11:29:06;;;;;;;2.90;1.67;;;;;;;25.89;40.03;97796.88;1748562;80;21220;-61
2022/06/13 11:31:34;;;;;;;2.95;1.85;;;;;;;25.83;40.93;97791.61;1744301;80;21039;-59
2022/06/13 11:34:28;;;;;;;5.47;1.70;;;;;;;25.70;42.18;97790.64;1708364;80;21427;-64
2022/06/13 11:37:14;;;;;;;5.65;2.00;;;;;;;25.57;42.39;97779.10;1765117;79;20988;-63
2022/06/13 11:39:45;;;;;;;3.45;1.62;;;;;;;25.38;43.70;97781.63;1757211;80;21071;-62
2022/06/13 11:42:24;;;;;;;3.83;1.90;;;;;;;25.25;44.35;97776.33;1773497;79;21124;-59
2022/06/13 11:44:58;;;;;;;2.95;1.32;;;;;;;25.17;44.05;97773.41;1736680;80;20915;-59
2022/06/13 11:47:24;;;;;;;2.17;1.27;;;;;;;25.38;44.24;97772.04;1754979;80;21003;-60
2022/06/13 11:49:56;;;;;;;2.75;1.35;;;;;;;25.86;43.74;97762.80;1742419;81;21197;-61
2022/06/13 11:55:26;;;;;;;3.67;1.32;;;;;;;27.06;41.02;97745.79;1801174;78;21122;-60
2022/06/13 11:57:56;;;;;;;3.37;1.30;;;;;;;27.50;39.04;97745.05;1750020;80;20935;-60
2022/06/13 12:00:28;;;;;;;2.25;1.32;;;;;;;27.75;38.90;97740.07;1805121;78;21044;-63
2022/06/13 12:03:05;;;;;;;1.52;1.02;;;;;;;27.75;39.05;97737.32;1810402;77;21479;-62
2022/06/13 12:05:39;;;;;;;3.33;1.40;;;;;;;27.55;38.75;97734.98;1801170;77;21002;-62
2022/06/13 12:08:21;;;;;;;4.75;1.60;;;;;;;27.30;38.34;97728.91;1815452;77;22040;-60
2022/06/13 12:11:16;;;;;;;3.12;1.25;;;;;;;27.39;39.43;97733.38;1837396;77;21628;-60
2022/06/13 12:13:45;;;;;;;3.30;1.57;;;;;;;27.84;39.40;97725.23;1805113;77;20968;-61
2022/06/13 12:16:46;;;;;;;2.95;1.12;;;;;;;28.46;38.88;97725.69;1838883;77;20869;-63
2022/06/13 12:19:21;;;;;;;4.95;1.30;;;;;;;28.97;37.39;97721.05;1826071;77;21541;-62
2022/06/13 12:22:08;;;;;;;2.12;1.17;;;;;;;29.51;36.34;97716.99;1825503;77;21113;-59
2022/06/13 12:24:46;;;;;;;2.87;1.47;;;;;;;29.62;36.94;97709.32;1834490;77;21339;-63
2022/06/13 12:27:40;;;;;;;2.35;1.12;;;;;;;29.45;35.80;97713.17;1816829;77;20928;-63
2022/06/13 12:30:17;;;;;;;2.87;1.12;;;;;;;29.00;36.28;97709.95;1821961;77;20912;-63
2022/06/13 12:32:58;;;;;;;2.77;1.30;;;;;;;28.83;36.28;97706.11;1828604;77;20951;-62
2022/06/13 12:35:36;;;;;;;2.85;1.30;;;;;;;28.87;36.76;97693.84;1829636;77;21126;-61
2022/06/13 12:38:28;;;;;;;2.67;1.00;;;;;;;28.74;36.61;97690.67;1822273;77;21007;-58
2022/06/13 12:41:28;;;;;;;7.72;1.05;;;;;;;28.51;37.22;97694.73;1811847;77;20908;-60
2022/06/13 12:44:06;;;;;;;5.08;1.10;;;;;;;28.43;36.30;97687.16;1824461;77;20970;-58
2022/06/13 12:47:02;;;;;;;1.80;1.02;;;;;;;28.52;35.71;97679.77;1840433;77;20919;-62
2022/06/13 12:49:56;;;;;;;2.98;1.10;;;;;;;28.48;35.84;97676.30;1843223;77;21278;-59
2022/06/13 12:53:04;;;;;;;2.40;0.95;;;;;;;28.19;34.73;97676.66;1783110;77;21096;-59
2022/06/13 12:55:40;;;;;;;7.15;1.20;;;;;;;27.81;35.43;97669.66;1811419;78;20868;-62